createdAt,value
2022-12-03T00:00:12.882Z,2.60
2022-12-03T00:02:41.547Z,2.50
2022-12-03T00:05:10.342Z,2.50
2022-12-03T00:07:38.186Z,2.50
2022-12-03T00:10:07.863Z,2.50
2022-12-03T00:12:36.972Z,2.50
2022-12-03T00:15:05.754Z,2.60
2022-12-03T00:17:33.662Z,2.60
2022-12-03T00:20:01.459Z,2.50
2022-12-03T00:22:29.234Z,2.50
2022-12-03T00:24:57.042Z,2.50
2022-12-03T00:27:24.798Z,2.40
2022-12-03T00:29:53.927Z,2.60
2022-12-03T00:32:21.723Z,2.60
2022-12-03T00:34:49.514Z,2.70
2022-12-03T00:37:17.314Z,2.70
2022-12-03T00:39:45.126Z,2.70
2022-12-03T00:42:12.900Z,2.70
2022-12-03T00:44:40.871Z,2.60
2022-12-03T00:47:10.522Z,2.50
2022-12-03T00:49:38.355Z,2.60
2022-12-03T00:52:06.133Z,2.50
2022-12-03T00:54:34.410Z,2.60
2022-12-03T00:57:02.180Z,2.60
2022-12-03T00:59:29.952Z,2.60
2022-12-03T01:01:57.819Z,2.40
2022-12-03T01:04:27.029Z,2.40
2022-12-03T01:06:54.845Z,2.30
2022-12-03T01:09:22.851Z,2.40
2022-12-03T01:11:50.615Z,2.40
2022-12-03T01:14:20.436Z,2.40
2022-12-03T01:16:49.134Z,2.40
2022-12-03T01:19:17.791Z,2.40
2022-12-03T01:21:49.426Z,2.40
2022-12-03T01:24:17.975Z,2.50
2022-12-03T01:26:45.798Z,2.30
2022-12-03T01:29:13.750Z,2.30
2022-12-03T01:31:58.994Z,2.40
2022-12-03T01:34:26.826Z,2.50
2022-12-03T01:36:56.095Z,2.50
2022-12-03T01:39:24.003Z,2.50
2022-12-03T01:41:53.797Z,2.30
2022-12-03T01:44:25.700Z,2.30
2022-12-03T01:46:56.962Z,2.30
2022-12-03T01:49:28.298Z,2.30
2022-12-03T01:51:58.212Z,2.40
2022-12-03T01:54:31.679Z,2.40
2022-12-03T01:56:59.721Z,2.40
2022-12-03T01:59:34.097Z,2.40
2022-12-03T02:02:09.842Z,2.40
2022-12-03T02:04:37.657Z,2.40
2022-12-03T02:07:24.189Z,2.40
2022-12-03T02:09:52.753Z,2.30
2022-12-03T02:12:26.154Z,2.30
2022-12-03T02:14:55.118Z,2.20
2022-12-03T02:17:23.163Z,2.10
2022-12-03T02:19:51.285Z,2.20
2022-12-03T02:22:38.979Z,2.30
2022-12-03T02:25:17.211Z,2.20
2022-12-03T02:27:45.585Z,2.20
2022-12-03T02:30:15.922Z,2.20
2022-12-03T02:32:43.867Z,2.20
2022-12-03T02:35:16.005Z,2.10
2022-12-03T02:37:45.821Z,2.00
2022-12-03T02:40:19.290Z,2.00
2022-12-03T02:42:47.538Z,2.00
2022-12-03T02:45:17.663Z,2.00
2022-12-03T02:47:47.854Z,2.00
2022-12-03T02:50:21.130Z,2.00
2022-12-03T02:52:50.021Z,2.00
2022-12-03T02:55:19.978Z,1.90
2022-12-03T02:57:50.586Z,1.90
2022-12-03T03:00:22.870Z,1.80
2022-12-03T03:02:51.625Z,1.80
2022-12-03T03:05:22.486Z,1.80
2022-12-03T03:07:51.279Z,1.80
2022-12-03T03:10:23.689Z,1.80
2022-12-03T03:12:53.629Z,1.70
2022-12-03T03:15:22.246Z,1.70
2022-12-03T03:17:50.384Z,1.70
2022-12-03T03:20:18.325Z,1.70
2022-12-03T03:22:46.353Z,1.80
2022-12-03T03:25:18.648Z,1.80
2022-12-03T03:27:48.039Z,1.60
2022-12-03T03:30:16.233Z,1.80
2022-12-03T03:32:44.436Z,1.80
2022-12-03T03:35:13.946Z,1.80
2022-12-03T03:37:42.949Z,1.80
2022-12-03T03:40:11.578Z,1.80
2022-12-03T03:42:39.982Z,1.70
2022-12-03T03:45:10.807Z,1.70
2022-12-03T03:47:40.207Z,1.70
2022-12-03T03:50:09.849Z,1.70
2022-12-03T03:52:38.618Z,1.70
2022-12-03T03:55:07.350Z,1.70
2022-12-03T03:57:35.168Z,1.80
2022-12-03T04:00:04.750Z,1.80
2022-12-03T04:02:34.755Z,1.80
2022-12-03T04:05:02.578Z,1.70
2022-12-03T04:07:30.480Z,1.60
2022-12-03T04:09:58.293Z,1.70
2022-12-03T04:12:43.323Z,1.70
2022-12-03T04:15:11.522Z,1.70
2022-12-03T04:17:40.651Z,1.70
2022-12-03T04:20:08.753Z,1.60
2022-12-03T04:22:41.462Z,1.60
2022-12-03T04:25:28.206Z,1.70
2022-12-03T04:28:13.783Z,1.60
2022-12-03T04:30:41.650Z,1.60
2022-12-03T04:33:28.498Z,1.60
2022-12-03T04:35:56.332Z,1.70
2022-12-03T04:38:24.229Z,1.60
2022-12-03T04:41:04.897Z,1.60
2022-12-03T04:43:34.821Z,1.40
2022-12-03T04:46:02.763Z,1.50
2022-12-03T04:48:32.050Z,1.50
2022-12-03T04:50:59.821Z,1.40
2022-12-03T04:53:27.624Z,1.30
2022-12-03T04:55:55.425Z,1.20
2022-12-03T04:58:23.212Z,1.30
2022-12-03T05:00:51.235Z,1.40
2022-12-03T05:03:19.154Z,1.40
2022-12-03T05:05:48.305Z,1.20
2022-12-03T05:08:16.149Z,1.30
2022-12-03T05:10:44.003Z,1.30
2022-12-03T05:13:11.762Z,1.10
2022-12-03T05:15:39.574Z,1.20
2022-12-03T05:18:07.372Z,1.20
2022-12-03T05:20:51.344Z,1.10
2022-12-03T05:23:22.453Z,1.00
2022-12-03T05:25:50.321Z,1.10
2022-12-03T05:28:18.492Z,0.90
2022-12-03T05:30:46.356Z,1.00
2022-12-03T05:33:14.260Z,1.00
2022-12-03T05:35:42.055Z,1.00
2022-12-03T05:38:09.932Z,1.10
2022-12-03T05:40:39.107Z,1.10
2022-12-03T05:43:06.111Z,1.20
2022-12-03T05:45:36.502Z,1.20
2022-12-03T05:48:05.801Z,1.10
2022-12-03T05:50:36.184Z,1.20
2022-12-03T05:53:04.479Z,1.10
2022-12-03T05:55:32.634Z,1.20
2022-12-03T05:58:01.773Z,1.10
2022-12-03T06:00:32.315Z,1.20
2022-12-03T06:03:00.752Z,1.10
2022-12-03T06:05:28.866Z,1.20
2022-12-03T06:07:56.746Z,1.30
2022-12-03T06:10:26.418Z,1.20
2022-12-03T06:12:54.540Z,1.30
2022-12-03T06:15:23.777Z,1.30
2022-12-03T06:17:52.270Z,1.40
2022-12-03T06:20:21.835Z,1.40
2022-12-03T06:22:50.665Z,1.40
2022-12-03T06:25:18.570Z,1.30
2022-12-03T06:27:46.427Z,1.40
2022-12-03T06:30:15.537Z,1.40
2022-12-03T06:32:44.786Z,1.50
2022-12-03T06:35:12.740Z,1.40
2022-12-03T06:37:40.594Z,1.40
2022-12-03T06:40:09.550Z,1.40
2022-12-03T06:42:37.529Z,1.50
2022-12-03T06:45:06.092Z,1.40
2022-12-03T06:47:33.911Z,1.40
2022-12-03T06:50:03.194Z,1.40
2022-12-03T06:52:30.943Z,1.50
2022-12-03T06:54:58.718Z,1.50
2022-12-03T06:57:26.558Z,1.30
2022-12-03T06:59:54.742Z,1.20
2022-12-03T07:02:22.978Z,1.30
2022-12-03T07:04:50.918Z,1.20
2022-12-03T07:07:20.037Z,1.30
2022-12-03T07:09:47.838Z,1.30
2022-12-03T07:12:15.650Z,1.30
2022-12-03T07:14:43.530Z,1.40
2022-12-03T07:17:11.486Z,1.50
2022-12-03T07:19:39.351Z,1.50
2022-12-03T07:22:07.195Z,1.50
2022-12-03T07:24:36.442Z,1.60
2022-12-03T07:27:04.402Z,1.50
2022-12-03T07:29:32.206Z,1.50
2022-12-03T07:31:59.969Z,1.50
2022-12-03T07:34:28.789Z,1.50
2022-12-03T07:36:56.616Z,1.50
2022-12-03T07:39:24.418Z,1.60
2022-12-03T07:41:53.565Z,1.60
2022-12-03T07:44:21.321Z,1.60
2022-12-03T07:46:49.202Z,1.50
2022-12-03T07:49:17.013Z,1.50
2022-12-03T07:51:53.244Z,1.50
2022-12-03T07:54:21.568Z,1.50
2022-12-03T07:56:49.386Z,1.60
2022-12-03T07:59:18.774Z,1.50
2022-12-03T08:01:46.705Z,1.60
2022-12-03T08:04:14.790Z,1.70
2022-12-03T08:06:42.740Z,1.60
2022-12-03T08:09:15.783Z,1.70
2022-12-03T08:11:45.067Z,1.80
2022-12-03T08:14:14.874Z,1.60
2022-12-03T08:16:45.701Z,1.60
2022-12-03T08:19:14.829Z,1.60
2022-12-03T08:21:42.888Z,1.70
2022-12-03T08:24:15.526Z,1.70
2022-12-03T08:26:44.815Z,1.70
2022-12-03T08:29:14.832Z,1.70
2022-12-03T08:31:49.111Z,1.80
2022-12-03T08:34:19.913Z,1.70
2022-12-03T08:36:48.424Z,1.70
2022-12-03T08:39:29.025Z,1.80
2022-12-03T08:42:21.248Z,1.80
2022-12-03T08:44:49.103Z,1.80
2022-12-03T08:47:21.595Z,1.70
2022-12-03T08:49:54.837Z,1.80
2022-12-03T08:52:27.652Z,1.70
2022-12-03T08:54:57.180Z,1.60
2022-12-03T08:57:29.937Z,1.70
2022-12-03T09:00:01.291Z,1.80
2022-12-03T09:02:34.428Z,1.70
2022-12-03T09:05:14.430Z,1.60
2022-12-03T09:07:42.320Z,1.60
2022-12-03T09:10:10.818Z,1.60
2022-12-03T09:12:38.628Z,1.60
2022-12-03T09:15:07.379Z,1.70
2022-12-03T09:17:36.537Z,1.70
2022-12-03T09:20:04.829Z,1.80
2022-12-03T09:22:33.103Z,1.90
2022-12-03T09:25:00.882Z,1.80
2022-12-03T09:27:28.641Z,1.80
2022-12-03T09:29:56.507Z,1.70
2022-12-03T09:32:24.314Z,1.60
2022-12-03T09:34:54.272Z,1.70
2022-12-03T09:37:22.301Z,1.80
2022-12-03T09:39:50.410Z,1.80
2022-12-03T09:42:18.551Z,1.80
2022-12-03T09:44:46.474Z,1.90
2022-12-03T09:47:14.691Z,1.80
2022-12-03T09:49:42.974Z,1.70
2022-12-03T09:52:24.908Z,1.90
2022-12-03T09:54:53.966Z,1.90
2022-12-03T09:57:22.146Z,1.90
2022-12-03T09:59:50.429Z,1.90
2022-12-03T10:02:22.578Z,2.00
2022-12-03T10:04:50.738Z,2.10
2022-12-03T10:07:20.488Z,2.00
2022-12-03T10:09:48.404Z,1.90
2022-12-03T10:12:21.587Z,2.00
2022-12-03T10:14:49.617Z,2.10
2022-12-03T10:17:18.141Z,1.90
2022-12-03T10:19:46.281Z,2.00
2022-12-03T10:22:14.113Z,2.10
2022-12-03T10:24:44.667Z,2.10
2022-12-03T10:27:23.332Z,2.10
2022-12-03T10:29:58.177Z,2.10
2022-12-03T10:32:27.621Z,2.10
2022-12-03T10:35:09.578Z,2.20
2022-12-03T10:37:37.403Z,2.30
2022-12-03T10:40:09.517Z,2.00
2022-12-03T10:42:39.329Z,2.00
2022-12-03T10:45:18.399Z,2.00
2022-12-03T10:48:04.358Z,2.00
2022-12-03T10:50:32.542Z,2.00
2022-12-03T10:53:00.604Z,2.10
2022-12-03T10:55:35.064Z,2.00
2022-12-03T10:58:02.978Z,2.20
2022-12-03T11:00:30.756Z,2.10
2022-12-03T11:02:58.758Z,2.10
2022-12-03T11:05:28.378Z,2.00
2022-12-03T11:07:57.225Z,2.10
2022-12-03T11:10:26.204Z,2.10
2022-12-03T11:13:45.647Z,2.20
2022-12-03T11:16:15.890Z,2.20
2022-12-03T11:19:01.072Z,2.00
2022-12-03T11:21:29.485Z,1.90
2022-12-03T11:24:19.675Z,1.90
2022-12-03T11:27:19.497Z,1.90
2022-12-03T11:29:50.588Z,1.90
2022-12-03T11:33:01.237Z,2.00
2022-12-03T11:35:54.317Z,2.10
2022-12-03T11:38:52.290Z,2.20
2022-12-03T11:41:23.432Z,2.20
2022-12-03T11:44:03.989Z,2.20
2022-12-03T11:46:41.481Z,2.20
2022-12-03T11:49:33.672Z,2.10
2022-12-03T11:52:13.134Z,2.00
2022-12-03T11:54:40.995Z,1.90
2022-12-03T11:57:36.652Z,1.80
2022-12-03T12:00:19.729Z,1.90
2022-12-03T12:02:48.666Z,2.00
2022-12-03T12:05:22.212Z,2.10
2022-12-03T12:07:52.485Z,1.90
2022-12-03T12:10:45.364Z,1.90
2022-12-03T12:13:54.317Z,1.90
2022-12-03T12:16:41.251Z,1.80
2022-12-03T12:19:43.894Z,1.90
2022-12-03T12:22:20.323Z,1.90
2022-12-03T12:24:52.288Z,2.00
2022-12-03T12:27:22.165Z,2.00
2022-12-03T12:29:55.212Z,2.00
2022-12-03T12:32:26.391Z,2.00
2022-12-03T12:34:58.222Z,2.00
2022-12-03T12:37:33.423Z,2.00
2022-12-03T12:40:07.157Z,2.00
2022-12-03T12:42:37.326Z,2.10
2022-12-03T12:45:17.091Z,2.00
2022-12-03T12:47:50.133Z,2.00
2022-12-03T12:50:19.900Z,2.00
2022-12-03T12:52:52.144Z,1.80
2022-12-03T12:55:21.960Z,1.80
2022-12-03T12:57:49.876Z,1.70
2022-12-03T13:00:21.302Z,1.80
2022-12-03T13:02:53.137Z,1.80
2022-12-03T13:05:21.648Z,1.70
2022-12-03T13:07:49.592Z,1.70
2022-12-03T13:10:34.021Z,1.80
2022-12-03T13:13:23.693Z,1.80
2022-12-03T13:15:58.465Z,1.70
2022-12-03T13:18:33.403Z,1.80
2022-12-03T13:21:10.858Z,1.70
2022-12-03T13:23:38.774Z,1.80
2022-12-03T13:26:34.101Z,1.70
2022-12-03T13:29:12.609Z,1.80
2022-12-03T13:31:43.901Z,1.80
2022-12-03T13:34:16.612Z,1.90
2022-12-03T13:36:50.557Z,1.90
2022-12-03T13:39:27.920Z,2.00
2022-12-03T13:42:14.957Z,2.00
2022-12-03T13:44:45.490Z,2.10
2022-12-03T13:47:15.840Z,1.90
2022-12-03T13:49:47.647Z,1.80
2022-12-03T13:52:19.921Z,1.70
2022-12-03T13:54:51.653Z,1.60
2022-12-03T13:57:21.006Z,1.60
2022-12-03T13:59:48.790Z,1.60
2022-12-03T14:02:16.698Z,1.60
2022-12-03T14:04:44.636Z,1.60
2022-12-03T14:07:12.398Z,1.60
2022-12-03T14:09:40.195Z,1.50
2022-12-03T14:12:26.727Z,1.60
2022-12-03T14:14:57.096Z,1.60
2022-12-03T14:17:25.026Z,1.70
2022-12-03T14:19:53.333Z,1.80
2022-12-03T14:22:23.392Z,1.80
2022-12-03T14:24:51.308Z,1.90
2022-12-03T14:27:19.352Z,1.80
2022-12-03T14:29:47.483Z,1.70
2022-12-03T14:32:16.704Z,1.70
2022-12-03T14:34:44.691Z,1.80
2022-12-03T14:37:12.588Z,1.70
2022-12-03T14:39:40.482Z,1.70
2022-12-03T14:42:13.909Z,1.70
2022-12-03T14:44:42.589Z,1.60
2022-12-03T14:47:10.476Z,1.70
2022-12-03T14:49:39.926Z,1.80
2022-12-03T14:52:11.889Z,1.70
2022-12-03T14:54:42.032Z,1.60
2022-12-03T14:57:11.221Z,1.50
2022-12-03T14:59:38.993Z,1.50
2022-12-03T15:02:06.845Z,1.60
2022-12-03T15:04:35.306Z,1.50
2022-12-03T15:07:04.740Z,1.40
2022-12-03T15:09:32.611Z,1.50
2022-12-03T15:12:00.577Z,1.50
2022-12-03T15:14:28.397Z,1.50
2022-12-03T15:16:57.324Z,1.40
2022-12-03T15:19:25.255Z,1.40
2022-12-03T15:21:53.060Z,1.30
2022-12-03T15:24:22.317Z,1.30
2022-12-03T15:26:52.108Z,1.20
2022-12-03T15:29:20.097Z,1.40
2022-12-03T15:31:48.052Z,1.50
2022-12-03T15:34:21.839Z,1.60
2022-12-03T15:36:50.533Z,1.60
2022-12-03T15:39:18.620Z,1.60
2022-12-03T15:41:47.786Z,1.50
2022-12-03T15:44:15.617Z,1.40
2022-12-03T15:46:43.519Z,1.40
2022-12-03T15:49:11.394Z,1.50
2022-12-03T15:51:39.177Z,1.40
2022-12-03T15:54:07.144Z,1.50
2022-12-03T15:56:37.363Z,1.50
2022-12-03T15:59:06.539Z,1.40
2022-12-03T16:01:34.353Z,1.40
2022-12-03T16:04:02.205Z,1.50
2022-12-03T16:06:30.038Z,1.50
2022-12-03T16:08:57.800Z,1.50
2022-12-03T16:11:25.557Z,1.40
2022-12-03T16:13:53.370Z,1.50
2022-12-03T16:16:22.627Z,1.50
2022-12-03T16:18:50.457Z,1.50
2022-12-03T16:21:24.957Z,1.40
2022-12-03T16:23:54.412Z,1.40
2022-12-03T16:26:22.771Z,1.30
2022-12-03T16:28:50.619Z,1.30
2022-12-03T16:31:19.050Z,1.30
2022-12-03T16:33:48.538Z,1.30
2022-12-03T16:36:16.957Z,1.30
2022-12-03T16:38:44.733Z,1.40
2022-12-03T16:41:12.583Z,1.30
2022-12-03T16:43:40.402Z,1.30
2022-12-03T16:46:21.214Z,1.30
2022-12-03T16:48:50.696Z,1.40
2022-12-03T16:51:19.925Z,1.30
2022-12-03T16:53:48.054Z,1.30
2022-12-03T16:56:16.153Z,1.20
2022-12-03T16:58:44.448Z,1.20
2022-12-03T17:01:12.682Z,1.10
2022-12-03T17:03:40.622Z,1.10
2022-12-03T17:06:10.039Z,1.20
2022-12-03T17:08:37.869Z,1.30
2022-12-03T17:11:05.904Z,1.30
2022-12-03T17:13:33.875Z,1.20
2022-12-03T17:16:01.804Z,1.20
2022-12-03T17:18:29.614Z,1.20
2022-12-03T17:20:57.433Z,1.20
2022-12-03T17:23:26.846Z,1.10
2022-12-03T17:25:54.621Z,1.10
2022-12-03T17:28:22.860Z,1.10
2022-12-03T17:30:50.714Z,1.20
2022-12-03T17:33:18.514Z,1.20
2022-12-03T17:35:46.530Z,1.10
2022-12-03T17:38:14.362Z,1.10
2022-12-03T17:40:43.612Z,1.20
2022-12-03T17:43:11.373Z,1.30
2022-12-03T17:45:39.613Z,1.30
2022-12-03T17:48:08.222Z,1.20
2022-12-03T17:50:36.054Z,1.00
2022-12-03T17:53:07.860Z,1.10
2022-12-03T17:55:41.263Z,1.20
2022-12-03T17:58:13.495Z,1.10
2022-12-03T18:00:41.413Z,1.10
2022-12-03T18:03:09.223Z,1.10
2022-12-03T18:05:37.057Z,1.10
2022-12-03T18:08:05.093Z,1.10
2022-12-03T18:10:32.918Z,1.00
2022-12-03T18:13:02.100Z,1.10
2022-12-03T18:15:33.380Z,1.10
2022-12-03T18:18:01.320Z,1.10
2022-12-03T18:20:29.257Z,1.10
2022-12-03T18:22:58.450Z,1.00
2022-12-03T18:25:26.490Z,1.00
2022-12-03T18:27:54.285Z,1.00
2022-12-03T18:30:22.414Z,1.00
2022-12-03T18:32:51.568Z,1.10
2022-12-03T18:35:20.410Z,1.10
2022-12-03T18:37:49.997Z,1.00
2022-12-03T18:40:19.970Z,1.00
2022-12-03T18:42:48.169Z,0.90
2022-12-03T18:45:16.392Z,0.90
2022-12-03T18:47:44.340Z,1.00
2022-12-03T18:50:14.609Z,1.00
2022-12-03T18:52:42.447Z,1.00
2022-12-03T18:55:17.375Z,1.10
2022-12-03T18:57:45.314Z,0.90
2022-12-03T19:00:14.570Z,1.00
2022-12-03T19:05:32.329Z,1.00
2022-12-03T19:08:00.637Z,1.00
2022-12-03T19:10:28.805Z,0.90
2022-12-03T19:12:56.596Z,0.90
2022-12-03T19:15:24.357Z,1.00
2022-12-03T19:17:52.474Z,1.00
2022-12-03T19:20:20.429Z,0.90
2022-12-03T19:22:49.537Z,1.00
2022-12-03T19:25:17.401Z,1.00
2022-12-03T19:27:45.269Z,1.10
2022-12-03T19:30:13.874Z,1.00
2022-12-03T19:32:41.654Z,1.10
2022-12-03T19:35:11.891Z,1.00
2022-12-03T19:37:39.791Z,1.00
2022-12-03T19:40:11.123Z,1.00
2022-12-03T19:42:39.061Z,0.90
2022-12-03T19:45:08.056Z,1.10
2022-12-03T19:47:36.034Z,0.90
2022-12-03T19:50:04.039Z,1.00
2022-12-03T19:52:31.835Z,0.90
2022-12-03T19:54:59.645Z,0.90
2022-12-03T19:57:29.215Z,0.90
2022-12-03T19:59:57.384Z,1.00
2022-12-03T20:02:25.555Z,1.00
2022-12-03T20:04:53.459Z,1.10
2022-12-03T20:07:21.210Z,1.10
2022-12-03T20:09:51.122Z,0.90
2022-12-03T20:12:18.965Z,1.00
2022-12-03T20:14:49.771Z,1.00
2022-12-03T20:17:17.553Z,1.00
2022-12-03T20:19:45.317Z,0.90
2022-12-03T20:22:13.701Z,0.90
2022-12-03T20:24:41.543Z,1.00
2022-12-03T20:27:09.306Z,1.00
2022-12-03T20:29:37.116Z,1.00
2022-12-03T20:32:07.218Z,1.00
2022-12-03T20:34:35.776Z,1.00
2022-12-03T20:37:03.859Z,1.10
2022-12-03T20:39:31.673Z,1.00
2022-12-03T20:41:59.498Z,1.10
2022-12-03T20:44:27.270Z,1.20
2022-12-03T20:46:55.095Z,1.20
2022-12-03T20:49:24.255Z,1.20
2022-12-03T20:51:52.069Z,1.20
2022-12-03T20:54:19.976Z,1.00
2022-12-03T20:56:47.807Z,1.00
2022-12-03T20:59:17.752Z,1.10
2022-12-03T21:01:46.213Z,1.00
2022-12-03T21:04:15.935Z,1.10
2022-12-03T21:06:45.761Z,1.10
2022-12-03T21:09:14.291Z,1.20
2022-12-03T21:11:42.471Z,1.20
2022-12-03T21:14:11.035Z,1.30
2022-12-03T21:19:29.870Z,1.30
2022-12-03T21:21:58.994Z,1.20
2022-12-03T21:24:26.823Z,1.20
2022-12-03T21:26:54.685Z,1.20
2022-12-03T21:29:22.647Z,1.20
2022-12-03T21:31:50.449Z,1.00
2022-12-03T21:34:18.271Z,1.10
2022-12-03T21:36:46.053Z,1.20
2022-12-03T21:39:15.216Z,1.20
2022-12-03T21:42:19.087Z,1.20
2022-12-03T21:44:30.941Z,1.10
2022-12-03T21:47:09.264Z,1.20
2022-12-03T21:49:40.808Z,1.20
2022-12-03T21:52:08.690Z,1.10
2022-12-03T21:54:37.780Z,1.20
2022-12-03T21:57:05.547Z,1.10
2022-12-03T21:59:33.451Z,1.10
2022-12-03T22:02:01.318Z,1.20
2022-12-03T22:04:29.209Z,1.20
2022-12-03T22:06:57.006Z,1.20
2022-12-03T22:09:26.857Z,1.10
2022-12-03T22:11:59.097Z,1.20
2022-12-03T22:14:26.881Z,1.30
2022-12-03T22:16:54.876Z,1.20
2022-12-03T22:19:23.297Z,1.20
2022-12-03T22:21:51.165Z,1.10
2022-12-03T22:24:19.467Z,1.10
2022-12-03T22:26:48.016Z,1.20
2022-12-03T22:29:17.184Z,1.20
2022-12-03T22:31:45.057Z,1.20
2022-12-03T22:34:12.911Z,1.20
2022-12-03T22:36:40.752Z,1.30
2022-12-03T22:39:08.697Z,1.20
2022-12-03T22:41:36.497Z,1.30
2022-12-03T22:44:04.405Z,1.30
2022-12-03T22:46:33.657Z,1.30
2022-12-03T22:49:06.708Z,1.10
2022-12-03T22:51:35.651Z,1.20
2022-12-03T22:54:03.673Z,1.30
2022-12-03T22:56:32.155Z,1.20
2022-12-03T22:59:00.053Z,1.20
2022-12-03T23:01:29.934Z,1.30
2022-12-03T23:03:59.513Z,1.30
2022-12-03T23:06:28.059Z,1.30
2022-12-03T23:08:56.780Z,1.30
2022-12-03T23:11:24.801Z,1.40
2022-12-03T23:13:52.649Z,1.40
2022-12-03T23:16:22.935Z,1.40
2022-12-03T23:18:51.413Z,1.30
2022-12-03T23:21:27.236Z,1.30
2022-12-03T23:23:57.466Z,1.30
2022-12-03T23:26:25.313Z,1.30
2022-12-03T23:28:53.146Z,1.40
2022-12-03T23:31:23.364Z,1.50
2022-12-03T23:33:52.224Z,1.50
2022-12-03T23:36:22.619Z,1.50
2022-12-03T23:38:50.695Z,1.50
2022-12-03T23:41:20.958Z,1.50
2022-12-03T23:43:48.945Z,1.40
2022-12-03T23:46:19.054Z,1.40
2022-12-03T23:48:46.972Z,1.30
2022-12-03T23:51:17.151Z,1.40
2022-12-03T23:53:46.424Z,1.50
2022-12-03T23:56:16.533Z,1.40
2022-12-03T23:58:44.341Z,1.40
